Portada
METAR-TAF:

METAR-TAF

Aeroports :

Calcuta, Índia

latitud: 22-39N, longitud: 088-27E, altitud: 4 m

Observació

L'informe es va fer fa 17 minuts, a les 00:30 UTC
Vent calma
Temperatura 13°C
Humitat 94%
Pressió 1012 hPa
Visibilitat: 1500 m
boirina

METAR: VECC 280030Z 00000KT 1500 BR NSC 13/12 Q1012 NOSIG

Hora: 06:17 (00:47 UTC)

Pronòstic

L'informe es va fer fa 1 hora i 47 minuts, a les 23:00 UTC
Pronòstic vàlid del 28 a les 00 UTC al 29 a les 06 UTC
Vent kt del Nord
Visibilitat: 1400 m
Escasses núvols a una alçada de 2000 ft
Núvols disperses a una alçada de 10000 ft
boirina
Evolucionant progressivament
l' 28 a les 03 UTC al 28 a les 05 UTC
Vent 5 kt del Sud/Sud-Oest
Visibilitat: 2500 m
calitja
Evolucionant progressivament
l' 28 a les 06 UTC al 28 a les 08 UTC
Visibilitat: 3500 m
calitja

TAF: VECC 272300Z 2800/2906 00000KT 1400 BR FEW020 SCT100 BECMG 2803/2805 20005KT 2500 HZ BECMG 2806/2808 3500 HZ

Observacions i pronòstics meteorològics de més de 4000 aeroports (METAR i TAF).

Les estacions disponibles són els punts grocs i vermells al mapa.

Posi el ratolí al punt desitjat per veure el nom de l'estació.

Feu clic per veure les observacions i els pronòstics meteorològics.

Per canviar el mapa: feu clic els botons verds amb una creu de color negre per apropar; al botó verd amb un guió per allunyar la imatge; o en les fletxes verdes per a mapes adjacents.


METAR-TAF: